Time;durP1;ratioP1;P1;durP2;ratioP2;P2;SDS_P1;SDS_P2;PMS_P1;PMS_P2;Temp;Humidity;BMP_temperature;BMP_pressure;BME280_temperature;BME280_humidity;BME280_pressure;Samples;Min_cycle;Max_cycle;Signal;HPM_P1;HPM_P2
2023/05/04 00:02:05;;;;;;;9.77;4.53;;;;;;;;;;5033410;28;20436;-79
2023/05/04 00:04:30;;;;;;;7.63;4.30;;;;;;;;;;5040184;28;20060;-79
2023/05/04 00:06:56;;;;;;;15.23;4.63;;;;;;;;;;5038916;28;20038;-79
2023/05/04 00:09:21;;;;;;;9.95;5.00;;;;;;;;;;5040081;28;20030;-79
2023/05/04 00:11:46;;;;;;;11.20;4.72;;;;;;;;;;5037406;28;20457;-79
2023/05/04 00:14:12;;;;;;;13.13;4.65;;;;;;;;;;5039653;28;20042;-80
2023/05/04 00:16:37;;;;;;;14.52;5.90;;;;;;;;;;5035987;28;20106;-80
2023/05/04 00:19:02;;;;;;;12.85;5.13;;;;;;;;;;5041969;28;20099;-80
2023/05/04 00:21:28;;;;;;;7.30;4.97;;;;;;;;;;5042669;28;20112;-79
2023/05/04 00:23:53;;;;;;;10.43;4.40;;;;;;;;;;5035621;28;20079;-80
2023/05/04 00:26:18;;;;;;;9.63;5.53;;;;;;;;;;5043894;28;20033;-80
2023/05/04 00:28:44;;;;;;;14.10;5.70;;;;;;;;;;5038789;28;20037;-80
2023/05/04 00:31:09;;;;;;;11.38;5.03;;;;;;;;;;5044150;28;20104;-79
2023/05/04 00:33:35;;;;;;;10.10;4.85;;;;;;;;;;5044954;28;20033;-80
2023/05/04 00:36:02;;;;;;;11.40;5.93;;;;;;;;;;5046156;28;20041;-79
2023/05/04 00:38:28;;;;;;;12.68;5.50;;;;;;;;;;5041494;28;20078;-79
2023/05/04 00:40:53;;;;;;;12.27;5.57;;;;;;;;;;5039171;28;20033;-79
2023/05/04 00:43:18;;;;;;;10.60;5.10;;;;;;;;;;5045164;28;20037;-79
2023/05/04 00:45:44;;;;;;;11.95;5.88;;;;;;;;;;5036922;28;20033;-80
2023/05/04 00:48:09;;;;;;;11.48;5.43;;;;;;;;;;5048057;28;20039;-79
2023/05/04 00:50:35;;;;;;;9.20;5.22;;;;;;;;;;5041919;28;20550;-80
2023/05/04 00:53:05;;;;;;;13.93;5.85;;;;;;;;;;5050137;28;20112;-79
2023/05/04 00:55:31;;;;;;;12.85;4.90;;;;;;;;;;5039017;28;20400;-79
2023/05/04 00:57:56;;;;;;;11.23;5.90;;;;;;;;;;5046787;28;20151;-79
2023/05/04 01:00:23;;;;;;;12.23;5.78;;;;;;;;;;5027831;28;20054;-79
2023/05/04 01:02:48;;;;;;;13.98;5.78;;;;;;;;;;5039762;28;20094;-80
2023/05/04 01:05:14;;;;;;;6.85;3.78;;;;;;;;;;5042305;28;20041;-80
2023/05/04 01:07:58;;;;;;;11.57;6.35;;;;;;;;;;5048627;28;20453;-79
2023/05/04 01:10:37;;;;;;;9.73;5.50;;;;;;;;;;5049061;28;20474;-79
2023/05/04 01:13:06;;;;;;;8.73;5.22;;;;;;;;;;5057520;28;20040;-80
2023/05/04 01:15:32;;;;;;;15.73;5.70;;;;;;;;;;5040855;28;20040;-79
2023/05/04 01:17:57;;;;;;;10.93;6.15;;;;;;;;;;5047705;28;20112;-79
2023/05/04 01:20:23;;;;;;;11.00;5.55;;;;;;;;;;5040928;28;20396;-80
2023/05/04 01:22:48;;;;;;;11.68;5.78;;;;;;;;;;5026170;28;20045;-80
2023/05/04 01:25:13;;;;;;;16.08;5.53;;;;;;;;;;5036740;28;20041;-79
2023/05/04 01:27:45;;;;;;;11.68;5.70;;;;;;;;;;5036966;28;20075;-79
2023/05/04 01:30:17;;;;;;;14.73;5.38;;;;;;;;;;5049288;28;20041;-80
2023/05/04 01:32:44;;;;;;;11.80;6.03;;;;;;;;;;5037205;28;20037;-79
2023/05/04 01:35:10;;;;;;;12.73;6.13;;;;;;;;;;5049476;28;20040;-79
2023/05/04 01:37:35;;;;;;;9.18;5.13;;;;;;;;;;5040360;28;20037;-79
2023/05/04 01:40:01;;;;;;;15.32;5.75;;;;;;;;;;5060737;28;20382;-80
2023/05/04 01:42:26;;;;;;;9.73;3.97;;;;;;;;;;5043868;28;20069;-80
2023/05/04 01:44:52;;;;;;;10.40;5.28;;;;;;;;;;5041370;28;20385;-79
2023/05/04 01:47:17;;;;;;;16.70;5.88;;;;;;;;;;5036564;28;20041;-79
2023/05/04 01:49:42;;;;;;;13.05;6.60;;;;;;;;;;5050787;28;20057;-80
2023/05/04 01:52:08;;;;;;;11.90;5.68;;;;;;;;;;5052421;28;20044;-79
2023/05/04 01:54:33;;;;;;;9.65;4.60;;;;;;;;;;5046776;28;20041;-80
2023/05/04 01:57:00;;;;;;;14.70;4.97;;;;;;;;;;5049639;28;20413;-79
2023/05/04 01:59:25;;;;;;;11.45;5.60;;;;;;;;;;5048061;28;20099;-79
2023/05/04 02:01:51;;;;;;;10.10;5.18;;;;;;;;;;5043318;28;20048;-80
2023/05/04 02:04:16;;;;;;;9.25;4.70;;;;;;;;;;5034977;28;20060;-79
2023/05/04 02:06:41;;;;;;;10.18;5.40;;;;;;;;;;5034319;28;20038;-79
2023/05/04 02:09:07;;;;;;;14.45;6.60;;;;;;;;;;5035300;28;20434;-79
2023/05/04 02:11:32;;;;;;;12.38;5.03;;;;;;;;;;5037924;28;20026;-79
2023/05/04 02:13:58;;;;;;;11.18;5.53;;;;;;;;;;5050681;28;20033;-79
2023/05/04 02:16:23;;;;;;;10.57;5.65;;;;;;;;;;5046951;28;20469;-79
2023/05/04 02:18:48;;;;;;;11.45;5.05;;;;;;;;;;5023695;28;20035;-79
2023/05/04 02:21:14;;;;;;;10.85;5.60;;;;;;;;;;5034836;28;20066;-79
2023/05/04 02:23:39;;;;;;;10.93;5.53;;;;;;;;;;5047261;28;20049;-79
2023/05/04 02:26:05;;;;;;;7.70;4.50;;;;;;;;;;5039964;28;20037;-79
2023/05/04 02:28:30;;;;;;;12.63;5.28;;;;;;;;;;5045122;28;20048;-79
2023/05/04 02:30:56;;;;;;;10.77;4.85;;;;;;;;;;5041034;28;20040;-80
2023/05/04 02:33:21;;;;;;;9.07;5.18;;;;;;;;;;5042027;28;20497;-79
2023/05/04 02:35:47;;;;;;;8.45;5.35;;;;;;;;;;5045466;28;20124;-80
2023/05/04 02:38:12;;;;;;;9.32;4.80;;;;;;;;;;5047939;28;20042;-79
2023/05/04 02:40:37;;;;;;;13.50;4.25;;;;;;;;;;5037050;28;20148;-79
2023/05/04 02:43:03;;;;;;;10.00;4.78;;;;;;;;;;5045545;28;20045;-80
2023/05/04 02:45:28;;;;;;;9.90;4.07;;;;;;;;;;5035025;28;20651;-79
2023/05/04 02:47:53;;;;;;;7.93;4.47;;;;;;;;;;5047019;28;20041;-80
2023/05/04 02:50:19;;;;;;;10.18;3.85;;;;;;;;;;5043911;28;20033;-80
2023/05/04 02:52:44;;;;;;;7.53;3.97;;;;;;;;;;5041623;28;20029;-79
2023/05/04 02:55:09;;;;;;;7.30;4.55;;;;;;;;;;5035090;28;20056;-80
2023/05/04 02:57:35;;;;;;;9.38;4.18;;;;;;;;;;5042372;28;20427;-79
2023/05/04 03:00:00;;;;;;;10.10;5.07;;;;;;;;;;5042454;28;20124;-79
2023/05/04 03:02:26;;;;;;;6.68;4.40;;;;;;;;;;5037736;28;20465;-80
2023/05/04 03:04:51;;;;;;;13.55;5.75;;;;;;;;;;5036382;28;20120;-79
2023/05/04 03:07:16;;;;;;;9.02;4.57;;;;;;;;;;5053031;28;20090;-79
2023/05/04 03:09:42;;;;;;;10.55;4.10;;;;;;;;;;5039174;28;20532;-79
2023/05/04 03:12:07;;;;;;;8.38;3.78;;;;;;;;;;5037567;28;20041;-79
2023/05/04 03:14:32;;;;;;;7.97;3.70;;;;;;;;;;5036012;28;20141;-80
2023/05/04 03:16:58;;;;;;;12.55;3.45;;;;;;;;;;5037293;28;20033;-78
2023/05/04 03:19:23;;;;;;;10.43;4.45;;;;;;;;;;5033961;28;20512;-80
2023/05/04 03:21:49;;;;;;;9.50;3.95;;;;;;;;;;5043362;28;20044;-80
2023/05/04 03:24:16;;;;;;;11.27;5.20;;;;;;;;;;5049300;28;20105;-79
2023/05/04 03:26:41;;;;;;;13.38;4.35;;;;;;;;;;5029427;28;20044;-79
2023/05/04 03:29:07;;;;;;;10.73;4.50;;;;;;;;;;5039020;28;20038;-78
2023/05/04 03:31:32;;;;;;;14.43;4.15;;;;;;;;;;5034003;28;20116;-79
2023/05/04 03:33:58;;;;;;;8.70;3.88;;;;;;;;;;5037224;28;20037;-79
2023/05/04 03:36:23;;;;;;;8.63;4.15;;;;;;;;;;5043751;28;20132;-79
2023/05/04 03:38:48;;;;;;;9.05;4.47;;;;;;;;;;5037142;28;20044;-79
2023/05/04 03:41:15;;;;;;;11.93;4.63;;;;;;;;;;5042957;28;20040;-79
2023/05/04 03:43:41;;;;;;;11.15;5.40;;;;;;;;;;5049624;28;20037;-79
2023/05/04 03:46:06;;;;;;;15.63;6.40;;;;;;;;;;5050749;28;20029;-79
2023/05/04 03:48:31;;;;;;;8.23;4.53;;;;;;;;;;5034093;28;20062;-79
2023/05/04 03:50:57;;;;;;;18.88;5.95;;;;;;;;;;5033474;28;20037;-79
2023/05/04 03:53:22;;;;;;;8.98;5.22;;;;;;;;;;5041291;28;20480;-78
2023/05/04 03:55:48;;;;;;;12.55;6.43;;;;;;;;;;5034112;28;20052;-79
2023/05/04 03:58:13;;;;;;;9.52;4.40;;;;;;;;;;5037197;28;20036;-79
2023/05/04 04:00:39;;;;;;;11.18;4.22;;;;;;;;;;5034398;28;20037;-80
2023/05/04 04:03:04;;;;;;;11.43;5.65;;;;;;;;;;5037288;28;20528;-79
2023/05/04 04:05:29;;;;;;;11.63;5.05;;;;;;;;;;5033579;28;20048;-80
2023/05/04 04:07:55;;;;;;;8.98;4.32;;;;;;;;;;5039926;28;20029;-79
2023/05/04 04:10:20;;;;;;;17.00;6.70;;;;;;;;;;5040072;28;20394;-79
2023/05/04 04:12:46;;;;;;;21.08;7.70;;;;;;;;;;5042836;28;20037;-80
2023/05/04 04:15:11;;;;;;;12.13;6.38;;;;;;;;;;5035672;28;20037;-79
2023/05/04 04:17:36;;;;;;;12.93;5.15;;;;;;;;;;5035170;28;20083;-79
2023/05/04 04:20:02;;;;;;;10.38;4.03;;;;;;;;;;5033963;28;20080;-79
2023/05/04 04:22:28;;;;;;;10.02;4.47;;;;;;;;;;5051524;28;20071;-79
2023/05/04 04:24:53;;;;;;;9.73;5.00;;;;;;;;;;5065550;28;20061;-79
2023/05/04 04:27:18;;;;;;;18.38;4.65;;;;;;;;;;5034548;28;20874;-80
2023/05/04 04:29:44;;;;;;;15.68;5.55;;;;;;;;;;5038628;28;20037;-79
2023/05/04 04:32:09;;;;;;;11.75;4.20;;;;;;;;;;5040507;28;20121;-79
2023/05/04 04:34:35;;;;;;;13.52;6.38;;;;;;;;;;5049048;28;20033;-79
2023/05/04 04:37:00;;;;;;;11.80;5.60;;;;;;;;;;5034438;28;20475;-79
2023/05/04 04:39:26;;;;;;;8.52;4.72;;;;;;;;;;5037029;28;20041;-79
2023/05/04 04:41:51;;;;;;;18.33;5.70;;;;;;;;;;5032833;28;20045;-79
2023/05/04 04:44:17;;;;;;;14.25;5.65;;;;;;;;;;5040455;28;20044;-79
2023/05/04 04:46:44;;;;;;;17.50;7.10;;;;;;;;;;5038636;28;20073;-79
2023/05/04 04:49:11;;;;;;;12.88;6.30;;;;;;;;;;5034967;28;20029;-79
2023/05/04 04:51:36;;;;;;;16.33;5.90;;;;;;;;;;5034128;28;20116;-79
2023/05/04 04:54:01;;;;;;;16.08;7.72;;;;;;;;;;5041339;28;20123;-79
2023/05/04 04:56:27;;;;;;;12.48;6.00;;;;;;;;;;5037731;28;20508;-79
2023/05/04 04:58:52;;;;;;;9.52;6.13;;;;;;;;;;5044961;28;20028;-79
2023/05/04 05:01:17;;;;;;;18.02;6.78;;;;;;;;;;5033833;28;20426;-79
2023/05/04 05:03:46;;;;;;;20.02;7.35;;;;;;;;;;5032700;28;20049;-80
2023/05/04 05:06:12;;;;;;;16.42;6.60;;;;;;;;;;5034932;28;20037;-79
2023/05/04 05:08:37;;;;;;;17.92;7.82;;;;;;;;;;5032841;28;20033;-80
2023/05/04 05:11:03;;;;;;;17.85;7.72;;;;;;;;;;5037701;28;20500;-79
2023/05/04 05:13:31;;;;;;;19.88;7.47;;;;;;;;;;5045532;28;20094;-79
2023/05/04 05:15:57;;;;;;;14.68;6.55;;;;;;;;;;5044314;28;20038;-79
2023/05/04 05:18:23;;;;;;;19.55;7.18;;;;;;;;;;5044204;28;20082;-80
2023/05/04 05:20:49;;;;;;;14.52;8.35;;;;;;;;;;5038100;28;20393;-79
2023/05/04 05:23:15;;;;;;;14.07;7.22;;;;;;;;;;5043616;28;20093;-79
2023/05/04 05:25:42;;;;;;;13.50;6.47;;;;;;;;;;5066126;28;20040;-80
2023/05/04 05:28:08;;;;;;;16.65;6.22;;;;;;;;;;5046866;28;20471;-79
2023/05/04 05:30:33;;;;;;;13.90;5.85;;;;;;;;;;5036810;28;20045;-79
2023/05/04 05:32:59;;;;;;;13.50;6.28;;;;;;;;;;5036758;28;20056;-79
2023/05/04 05:35:24;;;;;;;14.48;6.28;;;;;;;;;;5037733;28;20017;-80
2023/05/04 05:37:49;;;;;;;11.23;6.32;;;;;;;;;;5046116;28;20481;-79
2023/05/04 05:40:15;;;;;;;21.63;8.18;;;;;;;;;;5039801;28;20080;-79
2023/05/04 05:42:43;;;;;;;19.42;8.52;;;;;;;;;;5041155;28;20376;-79
2023/05/04 05:45:09;;;;;;;21.08;10.75;;;;;;;;;;5038945;28;20045;-79
2023/05/04 05:47:35;;;;;;;23.58;9.18;;;;;;;;;;5049318;28;20068;-79
2023/05/04 05:50:02;;;;;;;17.70;8.82;;;;;;;;;;5048042;28;20493;-79
2023/05/04 05:52:27;;;;;;;21.45;8.50;;;;;;;;;;5052361;28;20537;-79
2023/05/04 05:54:53;;;;;;;18.33;7.65;;;;;;;;;;5049711;28;20037;-79
2023/05/04 05:57:19;;;;;;;11.48;5.63;;;;;;;;;;5054393;28;20033;-78
2023/05/04 05:59:45;;;;;;;11.48;5.78;;;;;;;;;;5049098;28;20103;-80
2023/05/04 06:02:13;;;;;;;11.98;5.53;;;;;;;;;;5038709;28;20042;-79
2023/05/04 06:04:39;;;;;;;12.50;6.15;;;;;;;;;;5050752;28;20033;-79
2023/05/04 06:07:05;;;;;;;17.65;9.65;;;;;;;;;;5048328;28;20481;-79
2023/05/04 06:09:31;;;;;;;16.33;8.45;;;;;;;;;;5052243;28;20055;-79
2023/05/04 06:11:56;;;;;;;18.88;8.27;;;;;;;;;;5039775;28;20130;-79
2023/05/04 06:14:22;;;;;;;12.50;6.32;;;;;;;;;;5031557;28;20494;-79
2023/05/04 06:16:47;;;;;;;14.55;6.55;;;;;;;;;;5034754;28;20037;-79
2023/05/04 06:19:13;;;;;;;13.85;7.47;;;;;;;;;;5047970;28;20029;-80
2023/05/04 06:21:38;;;;;;;16.25;7.88;;;;;;;;;;5038803;28;20044;-79
2023/05/04 06:24:04;;;;;;;18.85;7.40;;;;;;;;;;5062619;28;20040;-79
2023/05/04 06:26:29;;;;;;;13.18;7.65;;;;;;;;;;5042272;28;20030;-79
2023/05/04 06:28:55;;;;;;;13.45;7.07;;;;;;;;;;5049921;28;20099;-79
2023/05/04 06:31:20;;;;;;;18.63;7.45;;;;;;;;;;5049463;28;20033;-80
2023/05/04 06:33:46;;;;;;;15.00;7.22;;;;;;;;;;5048523;28;20453;-79
2023/05/04 06:36:12;;;;;;;17.10;7.88;;;;;;;;;;5043626;28;20037;-79
2023/05/04 06:38:37;;;;;;;17.50;7.70;;;;;;;;;;5040489;28;20037;-79
2023/05/04 06:41:02;;;;;;;20.80;7.88;;;;;;;;;;5036383;28;20036;-80
2023/05/04 06:43:28;;;;;;;15.27;8.35;;;;;;;;;;5048457;28;20040;-79
2023/05/04 06:45:53;;;;;;;18.60;7.97;;;;;;;;;;5046199;28;20393;-79
2023/05/04 06:48:18;;;;;;;12.73;8.15;;;;;;;;;;5049937;28;20032;-79
2023/05/04 06:50:44;;;;;;;21.23;8.13;;;;;;;;;;5048646;28;20041;-80
2023/05/04 06:53:10;;;;;;;15.25;7.35;;;;;;;;;;5046045;28;20119;-80
2023/05/04 06:55:36;;;;;;;19.95;7.35;;;;;;;;;;5042974;28;20175;-80
2023/05/04 06:58:02;;;;;;;18.80;8.15;;;;;;;;;;5044716;28;20460;-81
2023/05/04 07:00:28;;;;;;;20.17;6.90;;;;;;;;;;5033277;28;20065;-80
2023/05/04 07:02:53;;;;;;;17.45;7.75;;;;;;;;;;5034219;28;20025;-79
2023/05/04 07:05:22;;;;;;;15.60;7.88;;;;;;;;;;5039839;28;20409;-79
2023/05/04 07:07:48;;;;;;;22.00;7.07;;;;;;;;;;5037500;28;20048;-79
2023/05/04 07:10:14;;;;;;;16.33;7.63;;;;;;;;;;5038501;28;20112;-79
2023/05/04 07:12:40;;;;;;;14.43;7.55;;;;;;;;;;5043883;28;20030;-79
2023/05/04 07:15:07;;;;;;;13.80;7.72;;;;;;;;;;5036698;28;20474;-80
2023/05/04 07:17:33;;;;;;;13.95;7.00;;;;;;;;;;5045507;28;20032;-80
2023/05/04 07:20:01;;;;;;;15.27;7.60;;;;;;;;;;5035514;28;20033;-80
2023/05/04 07:22:27;;;;;;;14.35;7.20;;;;;;;;;;5061625;28;20049;-80
2023/05/04 07:24:52;;;;;;;16.95;7.03;;;;;;;;;;5036780;28;20033;-80
2023/05/04 07:27:18;;;;;;;15.43;8.02;;;;;;;;;;5039546;28;20036;-80
2023/05/04 07:29:43;;;;;;;13.13;7.30;;;;;;;;;;5047334;28;20044;-81
2023/05/04 07:32:08;;;;;;;16.10;8.25;;;;;;;;;;5044120;28;20041;-81
2023/05/04 07:34:34;;;;;;;14.43;7.55;;;;;;;;;;5049705;28;20044;-80
2023/05/04 07:37:02;;;;;;;13.95;7.10;;;;;;;;;;5052158;28;20099;-80
2023/05/04 07:39:28;;;;;;;14.07;7.35;;;;;;;;;;5035335;28;20397;-80
2023/05/04 07:41:53;;;;;;;15.23;7.18;;;;;;;;;;5035583;28;20033;-80
2023/05/04 07:44:19;;;;;;;16.75;6.88;;;;;;;;;;5037515;28;20083;-80
2023/05/04 07:46:44;;;;;;;15.00;6.53;;;;;;;;;;5038303;28;20136;-81
2023/05/04 07:49:10;;;;;;;15.63;6.90;;;;;;;;;;5034901;28;20455;-81
2023/05/04 07:51:36;;;;;;;11.57;6.03;;;;;;;;;;5036667;28;20037;-80
2023/05/04 07:54:02;;;;;;;14.35;6.38;;;;;;;;;;5036585;28;20045;-79
2023/05/04 07:56:27;;;;;;;13.30;6.82;;;;;;;;;;5037012;28;20053;-79
2023/05/04 07:58:52;;;;;;;14.55;6.85;;;;;;;;;;5039279;28;20035;-79
2023/05/04 08:01:18;;;;;;;13.95;6.55;;;;;;;;;;5033901;28;20034;-80
2023/05/04 08:03:44;;;;;;;13.63;7.28;;;;;;;;;;5033268;28;20072;-81
2023/05/04 08:06:09;;;;;;;13.65;6.65;;;;;;;;;;5043051;28;20113;-81
2023/05/04 08:08:35;;;;;;;15.85;6.68;;;;;;;;;;5049374;28;20056;-81
2023/05/04 08:11:00;;;;;;;13.75;6.55;;;;;;;;;;5048701;28;20025;-81
2023/05/04 08:13:25;;;;;;;12.27;6.43;;;;;;;;;;5047483;28;20052;-81
2023/05/04 08:15:51;;;;;;;13.65;6.13;;;;;;;;;;5043738;28;20458;-82
2023/05/04 08:18:16;;;;;;;14.00;7.30;;;;;;;;;;5036463;28;20037;-81
2023/05/04 08:20:42;;;;;;;12.32;5.05;;;;;;;;;;5031591;28;20049;-83
2023/05/04 08:23:07;;;;;;;10.20;5.80;;;;;;;;;;5025763;28;20112;-82
2023/05/04 08:25:33;;;;;;;16.33;7.22;;;;;;;;;;5037103;28;20148;-84
2023/05/04 08:27:58;;;;;;;11.35;5.93;;;;;;;;;;5038025;28;20067;-85
2023/05/04 08:30:24;;;;;;;16.48;7.30;;;;;;;;;;5042079;28;20037;-83
2023/05/04 08:32:51;;;;;;;9.52;6.20;;;;;;;;;;5038802;28;20501;-85
2023/05/04 08:35:17;;;;;;;13.30;7.00;;;;;;;;;;5039435;28;20477;-81
2023/05/04 08:37:42;;;;;;;15.23;7.38;;;;;;;;;;5032632;28;20040;-81
2023/05/04 08:40:08;;;;;;;13.68;6.93;;;;;;;;;;5037288;28;20045;-83
2023/05/04 08:42:33;;;;;;;13.77;7.20;;;;;;;;;;5039186;28;20072;-83
2023/05/04 08:44:59;;;;;;;11.75;6.60;;;;;;;;;;5039405;28;20056;-82
2023/05/04 08:47:27;;;;;;;10.35;5.80;;;;;;;;;;5031190;28;20544;-83
2023/05/04 08:49:53;;;;;;;11.60;6.40;;;;;;;;;;5030518;28;20037;-81
2023/05/04 08:52:22;;;;;;;15.02;7.57;;;;;;;;;;5046054;28;20025;-82
2023/05/04 08:54:47;;;;;;;10.70;6.43;;;;;;;;;;5045175;28;20457;-81
2023/05/04 08:57:14;;;;;;;15.98;7.25;;;;;;;;;;5052656;28;20045;-82
2023/05/04 08:59:40;;;;;;;9.60;6.43;;;;;;;;;;5030328;28;20052;-85
2023/05/04 09:02:06;;;;;;;13.10;6.15;;;;;;;;;;5027778;28;20041;-86
2023/05/04 09:04:31;;;;;;;12.95;6.38;;;;;;;;;;5056229;28;20493;-84
2023/05/04 09:06:57;;;;;;;11.60;6.68;;;;;;;;;;5049057;28;20029;-83
2023/05/04 09:09:25;;;;;;;11.80;6.38;;;;;;;;;;5049033;28;20123;-85
2023/05/04 09:11:51;;;;;;;12.07;5.75;;;;;;;;;;5041321;28;20049;-84
2023/05/04 09:14:16;;;;;;;11.88;6.28;;;;;;;;;;5049284;28;20380;-85
2023/05/04 09:16:42;;;;;;;12.00;6.30;;;;;;;;;;5040214;28;20400;-83
2023/05/04 09:19:18;;;;;;;14.30;6.35;;;;;;;;;;5038794;28;20079;-86
2023/05/04 09:21:43;;;;;;;14.23;6.70;;;;;;;;;;5039378;28;20033;-85
2023/05/04 09:24:09;;;;;;;10.82;6.55;;;;;;;;;;5041539;28;20390;-86
2023/05/04 09:26:34;;;;;;;10.93;6.35;;;;;;;;;;5045274;28;20061;-85
2023/05/04 09:29:13;;;;;;;14.43;6.43;;;;;;;;;;5043997;28;20055;-83
2023/05/04 09:31:49;;;;;;;12.98;5.57;;;;;;;;;;5034575;28;20050;-86
2023/05/04 09:34:16;;;;;;;13.10;6.40;;;;;;;;;;5038682;28;20037;-85
2023/05/04 09:36:41;;;;;;;10.80;6.30;;;;;;;;;;5051541;28;20044;-84
2023/05/04 09:39:10;;;;;;;9.15;5.32;;;;;;;;;;5034847;28;20033;-85
2023/05/04 09:41:35;;;;;;;9.68;5.65;;;;;;;;;;5035479;28;20397;-86
2023/05/04 09:44:02;;;;;;;11.57;5.32;;;;;;;;;;5046797;28;20047;-83
2023/05/04 09:46:28;;;;;;;13.10;6.85;;;;;;;;;;5042951;28;20037;-85
2023/05/04 09:48:55;;;;;;;12.13;5.75;;;;;;;;;;5043664;28;20044;-83
2023/05/04 09:51:22;;;;;;;10.32;5.72;;;;;;;;;;5045861;28;20088;-85
2023/05/04 09:53:49;;;;;;;15.65;6.05;;;;;;;;;;5034172;28;20051;-84
2023/05/04 09:56:30;;;;;;;9.48;5.47;;;;;;;;;;5040682;28;20068;-84
2023/05/04 09:58:57;;;;;;;12.75;5.97;;;;;;;;;;5033948;28;20034;-84
2023/05/04 10:01:26;;;;;;;15.10;6.30;;;;;;;;;;5033260;28;20504;-84
2023/05/04 10:03:52;;;;;;;11.10;5.05;;;;;;;;;;5063581;28;20033;-84
2023/05/04 10:06:18;;;;;;;11.65;6.13;;;;;;;;;;5039123;28;20037;-85
2023/05/04 10:08:43;;;;;;;11.75;5.25;;;;;;;;;;5046370;28;20057;-82
2023/05/04 10:11:09;;;;;;;9.18;5.70;;;;;;;;;;5042857;28;20594;-85
2023/05/04 10:13:34;;;;;;;9.15;5.13;;;;;;;;;;5047385;28;20094;-85
2023/05/04 10:16:00;;;;;;;9.50;5.80;;;;;;;;;;5046786;28;20041;-85
2023/05/04 10:18:28;;;;;;;10.00;5.38;;;;;;;;;;5043568;28;20033;-85
2023/05/04 10:21:15;;;;;;;15.27;6.53;;;;;;;;;;5044600;28;20032;-83
2023/05/04 10:23:52;;;;;;;11.13;5.75;;;;;;;;;;5064898;28;20086;-86
2023/05/04 10:26:36;;;;;;;11.38;5.35;;;;;;;;;;5046975;28;20040;-85
2023/05/04 10:29:12;;;;;;;11.93;5.68;;;;;;;;;;5050240;28;20397;-86
2023/05/04 10:31:41;;;;;;;10.65;5.43;;;;;;;;;;5066202;28;20044;-86
2023/05/04 10:34:07;;;;;;;12.45;5.05;;;;;;;;;;5046842;28;20128;-85
2023/05/04 10:36:40;;;;;;;12.98;5.97;;;;;;;;;;5034367;28;20438;-86
2023/05/04 10:39:24;;;;;;;15.23;5.97;;;;;;;;;;5031860;28;20064;-86
2023/05/04 10:42:03;;;;;;;9.07;4.90;;;;;;;;;;5064046;28;20033;-86
2023/05/04 10:44:34;;;;;;;14.80;6.40;;;;;;;;;;5033766;28;20124;-86
2023/05/04 10:47:06;;;;;;;7.35;4.60;;;;;;;;;;5037704;28;20455;-85
2023/05/04 10:49:33;;;;;;;11.73;5.55;;;;;;;;;;5037024;28;20045;-85
2023/05/04 10:52:09;;;;;;;13.32;5.50;;;;;;;;;;5052875;28;20532;-86
2023/05/04 10:54:39;;;;;;;12.95;5.75;;;;;;;;;;5035664;28;20051;-85
2023/05/04 10:57:07;;;;;;;11.75;5.53;;;;;;;;;;5038998;28;20076;-86
2023/05/04 10:59:33;;;;;;;13.13;6.20;;;;;;;;;;5030795;28;20075;-89
2023/05/04 11:02:00;;;;;;;14.57;6.03;;;;;;;;;;5048111;28;20065;-88
2023/05/04 11:04:26;;;;;;;12.23;5.47;;;;;;;;;;5048613;28;20056;-86
2023/05/04 11:06:56;;;;;;;10.98;5.68;;;;;;;;;;5036206;28;20038;-88
2023/05/04 11:09:21;;;;;;;12.30;5.53;;;;;;;;;;5067865;28;20033;-87
2023/05/04 11:11:47;;;;;;;10.32;5.45;;;;;;;;;;5043152;28;20086;-88
2023/05/04 11:14:21;;;;;;;6.80;4.85;;;;;;;;;;5040349;28;20041;-88
2023/05/04 11:16:47;;;;;;;14.25;6.05;;;;;;;;;;5036229;28;20495;-88
2023/05/04 11:19:12;;;;;;;10.20;5.80;;;;;;;;;;5038160;28;20034;-89
2023/05/04 11:21:39;;;;;;;9.93;5.60;;;;;;;;;;5033846;28;20028;-87
2023/05/04 11:24:05;;;;;;;11.07;4.63;;;;;;;;;;5038864;28;20584;-88
2023/05/04 11:26:30;;;;;;;13.00;5.30;;;;;;;;;;5031191;28;20045;-89
2023/05/04 11:28:56;;;;;;;11.48;5.85;;;;;;;;;;5029919;28;20029;-89
2023/05/04 11:31:21;;;;;;;8.38;4.82;;;;;;;;;;5036578;28;20044;-89
2023/05/04 11:33:51;;;;;;;10.43;5.03;;;;;;;;;;5044656;28;20045;-88
2023/05/04 11:36:18;;;;;;;14.50;6.20;;;;;;;;;;5031712;28;20146;-88
2023/05/04 11:38:44;;;;;;;15.32;5.07;;;;;;;;;;5034390;28;20041;-87
2023/05/04 11:41:11;;;;;;;12.70;6.25;;;;;;;;;;5026270;28;20048;-87
2023/05/04 11:43:38;;;;;;;8.27;4.72;;;;;;;;;;5059908;28;20033;-88
2023/05/04 11:46:05;;;;;;;10.50;5.95;;;;;;;;;;5031072;28;20069;-89
2023/05/04 11:48:31;;;;;;;7.43;4.85;;;;;;;;;;5032835;28;20049;-86
2023/05/04 11:50:57;;;;;;;11.80;5.53;;;;;;;;;;5041366;28;20056;-87
2023/05/04 11:53:22;;;;;;;12.02;5.90;;;;;;;;;;5024695;28;20038;-88
2023/05/04 11:55:48;;;;;;;8.95;4.75;;;;;;;;;;5028436;28;20103;-87
2023/05/04 11:58:14;;;;;;;11.60;6.10;;;;;;;;;;5047306;28;20087;-86
2023/05/04 12:00:45;;;;;;;12.82;6.00;;;;;;;;;;5032098;28;20045;-86
2023/05/04 12:03:26;;;;;;;15.05;6.97;;;;;;;;;;5038399;28;20072;-88
2023/05/04 12:05:54;;;;;;;9.90;6.28;;;;;;;;;;5048586;28;20060;-87
2023/05/04 12:08:30;;;;;;;12.68;6.80;;;;;;;;;;5043714;28;20041;-87
2023/05/04 12:11:08;;;;;;;10.55;6.15;;;;;;;;;;5036989;28;20040;-89
2023/05/04 12:13:34;;;;;;;11.10;6.07;;;;;;;;;;5033771;28;20043;-88
2023/05/04 12:16:14;;;;;;;12.80;6.25;;;;;;;;;;5040990;28;20037;-89
2023/05/04 12:18:39;;;;;;;12.65;5.55;;;;;;;;;;5041620;28;20079;-89
2023/05/04 12:21:12;;;;;;;12.30;5.90;;;;;;;;;;5043992;28;20161;-87
2023/05/04 12:23:38;;;;;;;7.35;4.85;;;;;;;;;;5057465;28;20053;-87
2023/05/04 12:26:03;;;;;;;7.85;4.20;;;;;;;;;;5035717;28;20112;-86
2023/05/04 12:28:29;;;;;;;12.02;7.10;;;;;;;;;;5038424;28;20513;-88
2023/05/04 12:30:55;;;;;;;14.52;6.57;;;;;;;;;;5052069;28;20120;-86
2023/05/04 12:33:20;;;;;;;10.40;6.10;;;;;;;;;;5049066;28;20029;-88
2023/05/04 12:35:46;;;;;;;14.80;6.90;;;;;;;;;;5052790;28;20483;-87
2023/05/04 12:38:12;;;;;;;10.07;5.70;;;;;;;;;;5046902;28;20034;-88
2023/05/04 12:40:37;;;;;;;13.60;6.35;;;;;;;;;;5042499;28;20461;-88
2023/05/04 12:43:03;;;;;;;13.13;6.05;;;;;;;;;;5028677;28;20038;-86
2023/05/04 12:45:28;;;;;;;7.82;4.70;;;;;;;;;;5049279;28;20036;-88
2023/05/04 12:47:54;;;;;;;11.00;5.90;;;;;;;;;;5049741;28;20033;-87
2023/05/04 12:50:19;;;;;;;13.60;5.82;;;;;;;;;;5053307;28;20045;-87
2023/05/04 12:52:45;;;;;;;9.75;6.03;;;;;;;;;;5048310;28;20057;-87
2023/05/04 12:55:10;;;;;;;17.60;6.70;;;;;;;;;;5048758;28;20049;-88
2023/05/04 12:57:36;;;;;;;14.05;6.28;;;;;;;;;;5047077;28;20396;-87
2023/05/04 13:00:03;;;;;;;14.93;6.53;;;;;;;;;;5044615;28;20052;-87
2023/05/04 13:02:28;;;;;;;13.85;6.00;;;;;;;;;;5039246;28;20526;-85
2023/05/04 13:04:53;;;;;;;16.50;6.25;;;;;;;;;;5055556;28;20045;-85
2023/05/04 13:07:19;;;;;;;16.15;6.65;;;;;;;;;;5050987;28;20428;-87
2023/05/04 13:09:44;;;;;;;16.77;6.85;;;;;;;;;;5053087;28;20040;-86
2023/05/04 13:12:10;;;;;;;15.50;6.97;;;;;;;;;;5054734;28;20035;-87
2023/05/04 13:14:35;;;;;;;17.13;6.68;;;;;;;;;;5057221;28;20033;-87
2023/05/04 13:17:01;;;;;;;16.02;6.80;;;;;;;;;;5055207;28;20067;-87
2023/05/04 13:19:26;;;;;;;13.32;7.00;;;;;;;;;;5053235;28;20049;-87
2023/05/04 13:21:52;;;;;;;13.70;6.82;;;;;;;;;;5046892;28;20041;-87
2023/05/04 13:24:17;;;;;;;17.85;7.47;;;;;;;;;;5048098;28;20453;-88
2023/05/04 13:26:43;;;;;;;9.27;5.55;;;;;;;;;;5040642;28;20061;-85
2023/05/04 13:29:09;;;;;;;10.75;6.05;;;;;;;;;;5039254;28;20596;-87
2023/05/04 13:31:34;;;;;;;15.23;5.78;;;;;;;;;;5042576;28;20120;-88
2023/05/04 13:34:00;;;;;;;12.60;6.13;;;;;;;;;;5055482;28;20469;-86
2023/05/04 13:36:25;;;;;;;13.88;6.68;;;;;;;;;;5050501;28;20167;-88
2023/05/04 13:38:50;;;;;;;11.43;5.70;;;;;;;;;;5040479;28;20385;-87
2023/05/04 13:41:16;;;;;;;13.38;6.20;;;;;;;;;;5044875;28;20048;-86
2023/05/04 13:43:42;;;;;;;10.85;6.10;;;;;;;;;;5046700;28;20395;-87
2023/05/04 13:46:07;;;;;;;14.73;6.60;;;;;;;;;;5052330;28;20025;-86
2023/05/04 13:48:32;;;;;;;8.95;5.15;;;;;;;;;;5043643;28;20037;-87
2023/05/04 13:50:58;;;;;;;14.05;6.75;;;;;;;;;;5040219;28;20037;-87
2023/05/04 13:53:23;;;;;;;14.05;5.53;;;;;;;;;;5053409;28;20044;-86
2023/05/04 13:55:49;;;;;;;12.70;6.05;;;;;;;;;;5038639;28;20103;-86
2023/05/04 13:58:14;;;;;;;11.02;5.10;;;;;;;;;;5035340;28;20033;-87
2023/05/04 14:00:39;;;;;;;14.43;6.07;;;;;;;;;;5036197;28;20047;-86
2023/05/04 14:03:05;;;;;;;14.70;5.82;;;;;;;;;;5041363;28;20087;-85
2023/05/04 14:05:30;;;;;;;15.55;6.32;;;;;;;;;;5033050;28;20099;-79
2023/05/04 14:07:56;;;;;;;13.70;6.07;;;;;;;;;;5028991;28;20052;-85
2023/05/04 14:10:21;;;;;;;13.02;5.50;;;;;;;;;;5051510;28;20119;-87
2023/05/04 14:12:47;;;;;;;14.52;5.68;;;;;;;;;;5049246;28;20121;-85
2023/05/04 14:15:12;;;;;;;10.30;5.28;;;;;;;;;;5052764;28;20067;-86
2023/05/04 14:17:38;;;;;;;11.10;6.28;;;;;;;;;;5048717;28;20057;-87
2023/05/04 14:20:05;;;;;;;12.88;5.80;;;;;;;;;;5049158;28;20098;-87
2023/05/04 14:22:30;;;;;;;10.48;5.22;;;;;;;;;;5037343;28;20049;-82
2023/05/04 14:24:56;;;;;;;13.32;5.40;;;;;;;;;;5049718;28;20124;-87
2023/05/04 14:27:22;;;;;;;9.40;5.55;;;;;;;;;;5050677;28;20183;-85